createdAt,value
2023-09-04T00:00:51.098Z,99970.84
2023-09-04T00:03:18.601Z,99958.38
2023-09-04T00:05:46.179Z,99969.78
2023-09-04T00:08:13.102Z,99973.16
2023-09-04T00:10:39.588Z,99967.38
2023-09-04T00:13:06.619Z,99966.38
2023-09-04T00:15:33.103Z,99974.53
2023-09-04T00:17:59.609Z,99977.09
2023-09-04T00:20:26.080Z,99974.16
2023-09-04T00:22:52.562Z,99979.38
2023-09-04T00:25:19.003Z,99974.78
2023-09-04T00:27:53.094Z,99976.75
2023-09-04T00:30:21.149Z,99974.16
2023-09-04T00:32:47.855Z,99981.16
2023-09-04T00:35:14.416Z,99974.31
2023-09-04T00:37:40.870Z,99970.63
2023-09-04T00:40:07.213Z,99972.84
2023-09-04T00:42:33.949Z,99988.88
2023-09-04T00:45:00.492Z,99986.09
2023-09-04T00:47:26.955Z,99991.44
2023-09-04T00:49:53.335Z,99976.50
2023-09-04T00:52:20.099Z,99978.81
2023-09-04T00:54:46.474Z,99985.47
2023-09-04T00:57:13.072Z,99988.09
2023-09-04T00:59:39.739Z,99984.72
2023-09-04T01:02:07.706Z,99991.50
2023-09-04T01:04:34.225Z,99994.06
2023-09-04T01:07:00.721Z,99984.03
2023-09-04T01:09:27.294Z,99985.63
2023-09-04T01:11:53.697Z,99973.94
2023-09-04T01:14:20.313Z,99976.19
2023-09-04T01:16:47.303Z,99980.97
2023-09-04T01:19:13.840Z,99980.94
2023-09-04T01:21:40.307Z,99964.69
2023-09-04T01:24:07.184Z,99968.44
2023-09-04T01:26:33.600Z,99974.00
2023-09-04T01:29:00.069Z,99961.38
2023-09-04T01:31:26.649Z,99967.72
2023-09-04T01:33:53.317Z,99976.41
2023-09-04T01:36:19.802Z,99969.91
2023-09-04T01:38:46.387Z,99971.47
2023-09-04T01:41:12.797Z,99967.56
2023-09-04T01:43:39.578Z,99966.94
2023-09-04T01:46:06.232Z,99977.06
2023-09-04T01:48:32.616Z,99973.63
2023-09-04T01:50:59.139Z,99977.09
2023-09-04T01:53:25.662Z,99980.50
2023-09-04T01:55:52.108Z,99983.47
2023-09-04T01:58:18.613Z,99991.34
2023-09-04T02:00:45.064Z,99982.25
2023-09-04T02:03:11.638Z,99981.81
2023-09-04T02:05:38.134Z,99990.22
2023-09-04T02:08:04.930Z,99998.00
2023-09-04T02:10:31.500Z,99991.72
2023-09-04T02:12:57.875Z,99994.72
2023-09-04T02:15:24.335Z,99983.47
2023-09-04T02:17:50.798Z,99981.34
2023-09-04T02:20:17.239Z,99996.84
2023-09-04T02:22:43.721Z,99983.53
2023-09-04T02:25:11.107Z,99979.84
2023-09-04T02:27:37.682Z,99993.75
2023-09-04T02:30:04.264Z,99997.69
2023-09-04T02:32:30.671Z,99992.25
2023-09-04T02:34:57.151Z,100001.22
2023-09-04T02:37:23.699Z,99998.03
2023-09-04T02:39:50.228Z,99997.84
2023-09-04T02:42:16.614Z,100007.16
2023-09-04T02:44:42.990Z,100011.00
2023-09-04T02:47:09.644Z,100013.75
2023-09-04T02:49:36.041Z,100020.38
2023-09-04T02:52:02.483Z,100003.88
2023-09-04T02:54:28.915Z,100005.47
2023-09-04T02:56:55.317Z,100008.97
2023-09-04T02:59:21.872Z,100002.25
2023-09-04T03:01:48.369Z,100016.56
2023-09-04T03:04:14.878Z,100017.16
2023-09-04T03:06:41.426Z,100016.75
2023-09-04T03:09:07.821Z,100017.59
2023-09-04T03:11:34.931Z,100020.25
2023-09-04T03:14:01.370Z,100011.41
2023-09-04T03:16:27.896Z,100014.88
2023-09-04T03:18:54.393Z,100010.34
2023-09-04T03:21:21.166Z,100027.63
2023-09-04T03:23:47.788Z,100028.66
2023-09-04T03:26:14.205Z,100025.69
2023-09-04T03:28:40.938Z,100024.31
2023-09-04T03:31:07.397Z,100021.09
2023-09-04T03:33:34.222Z,100021.09
2023-09-04T03:36:00.716Z,100030.06
2023-09-04T03:38:27.366Z,100031.97
2023-09-04T03:40:53.975Z,100025.13
2023-09-04T03:43:20.749Z,100031.88
2023-09-04T03:45:47.316Z,100021.91
2023-09-04T03:48:13.884Z,100025.47
2023-09-04T03:50:40.558Z,100023.69
2023-09-04T03:53:06.978Z,100019.44
2023-09-04T03:55:33.394Z,100018.13
2023-09-04T03:57:59.819Z,100018.03
2023-09-04T04:00:26.306Z,100017.19
2023-09-04T04:02:52.977Z,100017.13
2023-09-04T04:05:19.610Z,100028.31
2023-09-04T04:07:46.059Z,100033.13
2023-09-04T04:10:12.517Z,100029.22
2023-09-04T04:12:38.918Z,100042.72
2023-09-04T04:15:05.402Z,100042.88
2023-09-04T04:17:31.859Z,100053.06
2023-09-04T04:19:58.356Z,100051.88
2023-09-04T04:22:25.000Z,100060.81
2023-09-04T04:24:51.830Z,100047.84
2023-09-04T04:27:18.271Z,100044.56
2023-09-04T04:29:44.732Z,100047.50
2023-09-04T04:32:11.248Z,100052.97
2023-09-04T04:34:37.875Z,100055.09
2023-09-04T04:37:04.288Z,100052.66
2023-09-04T04:39:30.743Z,100056.09
2023-09-04T04:41:57.198Z,100058.44
2023-09-04T04:44:23.612Z,100062.16
2023-09-04T04:46:50.087Z,100068.38
2023-09-04T04:49:16.729Z,100077.16
2023-09-04T04:51:43.162Z,100070.69
2023-09-04T04:54:09.608Z,100081.41
2023-09-04T04:56:36.450Z,100077.09
2023-09-04T04:59:03.184Z,100080.31
2023-09-04T05:01:30.796Z,100089.25
2023-09-04T05:03:57.476Z,100089.44
2023-09-04T05:06:23.997Z,100087.25
2023-09-04T05:08:50.538Z,100096.50
2023-09-04T05:11:16.918Z,100096.56
2023-09-04T05:13:43.431Z,100089.09
2023-09-04T05:16:09.959Z,100094.22
2023-09-04T05:18:36.834Z,100087.84
2023-09-04T05:21:03.873Z,100093.22
2023-09-04T05:23:30.322Z,100095.88
2023-09-04T05:25:57.484Z,100110.19
2023-09-04T05:28:24.135Z,100104.22
2023-09-04T05:30:51.542Z,100115.28
2023-09-04T05:33:18.035Z,100121.69
2023-09-04T05:35:44.436Z,100123.47
2023-09-04T05:38:12.197Z,100128.59
2023-09-04T05:40:38.654Z,100124.59
2023-09-04T05:43:05.126Z,100125.44
2023-09-04T05:45:32.470Z,100114.88
2023-09-04T05:47:58.947Z,100122.53
2023-09-04T05:50:25.979Z,100116.53
2023-09-04T05:52:52.401Z,100118.44
2023-09-04T05:55:19.334Z,100111.22
2023-09-04T05:57:46.055Z,100118.94
2023-09-04T06:00:13.719Z,100117.69
2023-09-04T06:02:40.243Z,100115.44
2023-09-04T06:05:06.692Z,100126.28
2023-09-04T06:07:33.181Z,100128.03
2023-09-04T06:09:59.696Z,100141.72
2023-09-04T06:12:26.120Z,100141.84
2023-09-04T06:14:53.777Z,100153.06
2023-09-04T06:17:20.395Z,100146.50
2023-09-04T06:19:46.792Z,100145.91
2023-09-04T06:22:13.269Z,100160.16
2023-09-04T06:24:40.131Z,100148.88
2023-09-04T06:27:06.823Z,100151.25
2023-09-04T06:29:33.319Z,100140.63
2023-09-04T06:31:59.777Z,100132.59
2023-09-04T06:34:26.170Z,100127.41
2023-09-04T06:36:53.196Z,100141.00
2023-09-04T06:39:19.644Z,100139.06
2023-09-04T06:41:46.681Z,100146.31
2023-09-04T06:44:13.235Z,100147.81
2023-09-04T06:46:40.265Z,100145.66
2023-09-04T06:49:06.812Z,100157.66
2023-09-04T06:51:33.229Z,100148.25
2023-09-04T06:54:00.067Z,100148.41
2023-09-04T06:56:26.534Z,100156.06
2023-09-04T06:58:52.948Z,100156.16
2023-09-04T07:01:19.633Z,100166.25
2023-09-04T07:03:46.084Z,100165.94
2023-09-04T07:06:12.720Z,100169.66
2023-09-04T07:08:39.107Z,100171.09
2023-09-04T07:11:05.640Z,100168.88
2023-09-04T07:13:32.022Z,100176.72
2023-09-04T07:15:58.748Z,100177.38
2023-09-04T07:18:25.229Z,100186.31
2023-09-04T07:20:51.717Z,100170.31
2023-09-04T07:23:21.798Z,100173.75
2023-09-04T07:25:56.582Z,100173.66
2023-09-04T07:28:23.076Z,100179.84
2023-09-04T07:30:49.542Z,100164.16
2023-09-04T07:33:16.075Z,100162.31
2023-09-04T07:35:42.711Z,100159.88
2023-09-04T07:38:09.272Z,100169.69
2023-09-04T07:40:35.720Z,100163.00
2023-09-04T07:43:02.260Z,100158.59
2023-09-04T07:45:28.795Z,100168.81
2023-09-04T07:47:55.243Z,100158.72
2023-09-04T07:50:21.764Z,100154.56
2023-09-04T07:52:48.291Z,100153.88
2023-09-04T07:55:14.782Z,100155.06
2023-09-04T07:57:41.331Z,100163.72
2023-09-04T08:00:07.967Z,100152.84
2023-09-04T08:02:34.420Z,100152.84
2023-09-04T08:05:01.038Z,100166.72
2023-09-04T08:07:28.844Z,100169.06
2023-09-04T08:09:55.273Z,100152.63
2023-09-04T08:12:23.000Z,100154.56
2023-09-04T08:14:49.523Z,100157.09
2023-09-04T08:17:15.993Z,100155.72
2023-09-04T08:19:43.313Z,100161.72
2023-09-04T08:22:09.798Z,100161.28
2023-09-04T08:24:36.357Z,100160.28
2023-09-04T08:27:02.765Z,100159.19
2023-09-04T08:29:30.493Z,100157.66
2023-09-04T08:31:56.933Z,100147.41
2023-09-04T08:34:23.677Z,100142.81
2023-09-04T08:36:50.654Z,100171.81
2023-09-04T08:39:17.241Z,100156.25
2023-09-04T08:41:43.710Z,100154.03
2023-09-04T08:44:10.803Z,100143.75
2023-09-04T08:46:37.362Z,100154.28
2023-09-04T08:49:04.179Z,100149.78
2023-09-04T08:51:30.616Z,100158.16
2023-09-04T08:54:01.037Z,100142.94
2023-09-04T08:56:27.948Z,100150.72
2023-09-04T08:58:54.539Z,100147.41
2023-09-04T09:01:20.957Z,100143.47
2023-09-04T09:03:47.596Z,100144.69
2023-09-04T09:06:14.341Z,100145.78
2023-09-04T09:08:40.754Z,100141.25
2023-09-04T09:11:07.290Z,100139.50
2023-09-04T09:13:34.027Z,100136.38
2023-09-04T09:16:00.583Z,100142.84
2023-09-04T09:18:27.109Z,100143.63
2023-09-04T09:20:53.536Z,100149.09
2023-09-04T09:23:20.995Z,100137.31
2023-09-04T09:25:47.627Z,100136.31
2023-09-04T09:28:14.820Z,100138.66
2023-09-04T09:30:41.303Z,100138.19
2023-09-04T09:33:07.760Z,100143.22
2023-09-04T09:35:34.241Z,100148.00
2023-09-04T09:38:00.715Z,100152.94
2023-09-04T09:40:27.202Z,100139.72
2023-09-04T09:42:53.601Z,100127.13
2023-09-04T09:45:20.136Z,100125.63
2023-09-04T09:47:47.016Z,100141.22
2023-09-04T09:50:13.516Z,100140.97
2023-09-04T09:52:40.024Z,100137.59
2023-09-04T09:55:06.510Z,100127.66
2023-09-04T09:57:33.807Z,100134.22
2023-09-04T10:00:00.309Z,100145.94
2023-09-04T10:02:27.362Z,100151.22
2023-09-04T10:04:53.804Z,100147.28
2023-09-04T10:07:20.312Z,100138.91
2023-09-04T10:09:49.597Z,100138.56
2023-09-04T10:12:16.035Z,100144.84
2023-09-04T10:14:42.451Z,100132.34
2023-09-04T10:17:10.310Z,100134.94
2023-09-04T10:19:36.920Z,100124.09
2023-09-04T10:22:03.358Z,100123.13
2023-09-04T10:26:59.536Z,100113.81
2023-09-04T10:29:25.982Z,100116.03
2023-09-04T10:31:52.504Z,100121.00
2023-09-04T10:34:19.447Z,100105.97
2023-09-04T10:36:46.080Z,100108.53
2023-09-04T10:39:12.599Z,100099.88
2023-09-04T10:41:39.407Z,100108.13
2023-09-04T10:44:06.115Z,100102.31
2023-09-04T10:46:32.824Z,100108.00
2023-09-04T10:48:59.316Z,100112.94
2023-09-04T10:51:25.727Z,100101.72
2023-09-04T10:53:52.227Z,100100.63
2023-09-04T10:56:18.604Z,100088.50
2023-09-04T10:58:45.102Z,100092.53
2023-09-04T11:01:11.924Z,100097.66
2023-09-04T11:03:38.439Z,100100.53
2023-09-04T11:06:05.061Z,100107.66
2023-09-04T11:08:31.530Z,100096.47
2023-09-04T11:10:57.971Z,100100.78
2023-09-04T11:13:24.660Z,100097.72
2023-09-04T11:15:51.246Z,100097.91
2023-09-04T11:18:17.777Z,100099.81
2023-09-04T11:20:44.528Z,100096.41
2023-09-04T11:23:11.007Z,100096.97
2023-09-04T11:25:39.117Z,100104.56
2023-09-04T11:28:05.611Z,100107.53
2023-09-04T11:30:34.402Z,100102.28
2023-09-04T11:33:04.843Z,100097.28
2023-09-04T11:35:31.319Z,100106.25
2023-09-04T11:38:00.066Z,100095.78
2023-09-04T11:40:27.762Z,100083.38
2023-09-04T11:42:54.177Z,100084.88
2023-09-04T11:45:20.869Z,100088.38
2023-09-04T11:47:47.387Z,100087.53
2023-09-04T11:50:14.332Z,100081.38
2023-09-04T11:52:40.898Z,100083.19
2023-09-04T11:55:07.403Z,100073.25
2023-09-04T11:57:34.176Z,100066.34
2023-09-04T12:00:01.133Z,100076.03
2023-09-04T12:02:27.640Z,100057.78
2023-09-04T12:04:54.089Z,100073.66
2023-09-04T12:07:20.529Z,100054.31
2023-09-04T12:09:47.356Z,100050.13
2023-09-04T12:12:13.809Z,100053.69
2023-09-04T12:14:40.276Z,100046.28
2023-09-04T12:17:06.724Z,100046.88
2023-09-04T12:19:33.240Z,100053.13
2023-09-04T12:21:59.882Z,100045.69
2023-09-04T12:24:26.316Z,100045.75
2023-09-04T12:26:52.885Z,100043.84
2023-09-04T12:29:19.430Z,100032.63
2023-09-04T12:31:45.987Z,100031.63
2023-09-04T12:34:12.373Z,100029.91
2023-09-04T12:36:38.951Z,100032.53
2023-09-04T12:39:05.351Z,100041.13
2023-09-04T12:41:31.747Z,100027.50
2023-09-04T12:43:58.195Z,100015.59
2023-09-04T12:46:24.588Z,100010.09
2023-09-04T12:48:51.438Z,100011.47
2023-09-04T12:51:17.851Z,100009.53
2023-09-04T12:53:44.205Z,100016.78
2023-09-04T12:56:10.568Z,99999.59
2023-09-04T12:58:36.972Z,100000.81
2023-09-04T13:01:03.373Z,100004.78
2023-09-04T13:03:30.208Z,99996.50
2023-09-04T13:05:57.324Z,99996.75
2023-09-04T13:08:23.783Z,99984.50
2023-09-04T13:10:51.644Z,99984.22
2023-09-04T13:13:18.000Z,99987.09
2023-09-04T13:15:44.396Z,99976.03
2023-09-04T13:18:11.717Z,99984.69
2023-09-04T13:20:38.147Z,99989.69
2023-09-04T13:23:04.601Z,99975.22
2023-09-04T13:25:31.001Z,99970.59
2023-09-04T13:27:57.354Z,99984.16
2023-09-04T13:30:23.709Z,99972.06
2023-09-04T13:32:50.149Z,99961.81
2023-09-04T13:35:16.494Z,99968.47
2023-09-04T13:37:43.093Z,99970.22
2023-09-04T13:40:09.516Z,99963.03
2023-09-04T13:42:35.957Z,99981.53
2023-09-04T13:45:02.656Z,99972.28
2023-09-04T13:47:29.329Z,99968.28
2023-09-04T13:49:55.843Z,99964.97
2023-09-04T13:52:22.263Z,99967.06
2023-09-04T13:54:48.636Z,99958.03
2023-09-04T13:57:16.105Z,99951.78
2023-09-04T13:59:44.299Z,99954.75
2023-09-04T14:02:11.092Z,99953.44
2023-09-04T14:04:37.555Z,99952.53
2023-09-04T14:07:04.104Z,99951.69
2023-09-04T14:09:30.894Z,99936.16
2023-09-04T14:11:57.346Z,99943.44
2023-09-04T14:14:23.960Z,99943.16
2023-09-04T14:16:50.356Z,99947.72
2023-09-04T14:19:16.773Z,99934.56
2023-09-04T14:21:43.343Z,99938.50
2023-09-04T14:24:09.767Z,99940.03
2023-09-04T14:26:36.170Z,99928.34
2023-09-04T14:29:03.157Z,99935.69
2023-09-04T14:31:29.978Z,99933.31
2023-09-04T14:33:56.501Z,99935.97
2023-09-04T14:36:22.918Z,99932.66
2023-09-04T14:38:49.536Z,99941.50
2023-09-04T14:41:16.256Z,99945.59
2023-09-04T14:43:42.713Z,99927.56
2023-09-04T14:48:36.140Z,99931.94
2023-09-04T14:51:02.730Z,99943.91
2023-09-04T14:53:29.193Z,99943.59
2023-09-04T14:55:57.085Z,99945.19
2023-09-04T14:58:23.895Z,99933.16
2023-09-04T15:00:50.635Z,99945.06
2023-09-04T15:03:18.988Z,99941.72
2023-09-04T15:05:45.643Z,99937.50
2023-09-04T15:08:12.552Z,99941.13
2023-09-04T15:10:39.158Z,99938.16
2023-09-04T15:13:05.648Z,99949.44
2023-09-04T15:15:32.491Z,99945.91
2023-09-04T15:17:58.915Z,99947.78
2023-09-04T15:20:25.398Z,99944.63
2023-09-04T15:22:51.912Z,99949.16
2023-09-04T15:25:20.889Z,99938.41
2023-09-04T15:27:47.931Z,99945.69
2023-09-04T15:30:15.004Z,99927.91
2023-09-04T15:32:42.091Z,99933.31
2023-09-04T15:35:10.429Z,99938.97
2023-09-04T15:37:37.620Z,99949.44
2023-09-04T15:40:05.487Z,99938.44
2023-09-04T15:42:35.205Z,99934.81
2023-09-04T15:45:02.100Z,99937.66
2023-09-04T15:47:29.296Z,99930.66
2023-09-04T15:49:58.089Z,99935.00
2023-09-04T15:52:24.740Z,99938.19
2023-09-04T15:54:51.208Z,99938.03
2023-09-04T15:57:17.907Z,99930.13
2023-09-04T15:59:44.661Z,99928.44
2023-09-04T16:02:11.901Z,99935.09
2023-09-04T16:04:40.793Z,99935.69
2023-09-04T16:07:08.066Z,99933.34
2023-09-04T16:09:35.162Z,99928.88
2023-09-04T16:12:02.261Z,99941.19
2023-09-04T16:14:29.687Z,99933.41
2023-09-04T16:16:57.590Z,99937.00
2023-09-04T16:19:24.685Z,99941.47
2023-09-04T16:21:52.148Z,99940.31
2023-09-04T16:24:19.918Z,99939.94
2023-09-04T16:26:47.038Z,99938.44
2023-09-04T16:29:14.193Z,99933.03
2023-09-04T16:31:41.308Z,99927.88
2023-09-04T16:34:08.492Z,99925.44
2023-09-04T16:36:36.281Z,99928.44
2023-09-04T16:39:03.424Z,99934.13
2023-09-04T16:41:30.976Z,99934.38
2023-09-04T16:43:58.574Z,99932.06
2023-09-04T16:46:26.102Z,99927.94
2023-09-04T16:48:54.306Z,99937.56
2023-09-04T16:51:21.418Z,99933.81
2023-09-04T16:53:48.821Z,99938.34
2023-09-04T16:56:16.980Z,99944.59
2023-09-04T16:58:44.131Z,99934.06
2023-09-04T17:01:11.398Z,99935.56
2023-09-04T17:03:38.893Z,99929.31
2023-09-04T17:06:06.256Z,99940.44
2023-09-04T17:08:33.534Z,99938.25
2023-09-04T17:11:01.091Z,99939.50
2023-09-04T17:13:30.945Z,99939.00
2023-09-04T17:16:01.250Z,99951.88
2023-09-04T17:18:29.181Z,99945.56
2023-09-04T17:20:56.433Z,99949.22
2023-09-04T17:23:23.691Z,99944.97
2023-09-04T17:25:50.845Z,99947.59
2023-09-04T17:28:17.974Z,99953.19
2023-09-04T17:30:45.532Z,99954.97
2023-09-04T17:33:12.707Z,99947.06
2023-09-04T17:35:39.923Z,99950.72
2023-09-04T17:38:09.343Z,99940.19
2023-09-04T17:40:36.998Z,99940.44
2023-09-04T17:43:04.292Z,99946.06
2023-09-04T17:45:34.090Z,99945.72
2023-09-04T17:48:01.348Z,99947.25
2023-09-04T17:50:29.103Z,99947.75
2023-09-04T17:52:56.600Z,99954.78
2023-09-04T17:55:23.771Z,99950.78
2023-09-04T17:57:50.880Z,99947.72
2023-09-04T18:00:18.805Z,99950.16
2023-09-04T18:02:46.525Z,99954.69
2023-09-04T18:05:13.857Z,99952.53
2023-09-04T18:07:42.171Z,99955.50
2023-09-04T18:10:10.452Z,99950.97
2023-09-04T18:12:38.439Z,99955.84
2023-09-04T18:15:06.771Z,99956.00
2023-09-04T18:17:34.101Z,99958.91
2023-09-04T18:20:02.735Z,99955.41
2023-09-04T18:22:30.024Z,99969.06
2023-09-04T18:24:57.584Z,99972.16
2023-09-04T18:27:24.960Z,99970.78
2023-09-04T18:29:52.235Z,99970.72
2023-09-04T18:32:19.560Z,99965.78
2023-09-04T18:34:47.688Z,99964.94
2023-09-04T18:37:15.437Z,99967.66
2023-09-04T18:39:46.269Z,99970.72
2023-09-04T18:42:13.556Z,99971.91
2023-09-04T18:44:42.151Z,99969.09
2023-09-04T18:47:09.912Z,99963.50
2023-09-04T18:49:37.357Z,99968.84
2023-09-04T18:52:05.186Z,99970.28
2023-09-04T18:54:32.830Z,99967.16
2023-09-04T18:57:01.317Z,99971.50
2023-09-04T18:59:29.619Z,99977.78
2023-09-04T19:01:57.555Z,99972.63
2023-09-04T19:04:25.705Z,99976.41
2023-09-04T19:06:53.223Z,99980.78
2023-09-04T19:12:01.515Z,99985.38
2023-09-04T19:14:29.566Z,99986.19
2023-09-04T19:16:56.952Z,99994.31
2023-09-04T19:19:24.232Z,99989.47
2023-09-04T19:21:52.019Z,99992.19
2023-09-04T19:24:21.610Z,99994.91
2023-09-04T19:26:51.469Z,99995.19
2023-09-04T19:29:18.705Z,99991.66
2023-09-04T19:31:47.181Z,100000.16
2023-09-04T19:34:15.059Z,100003.97
2023-09-04T19:36:42.429Z,100005.44
2023-09-04T19:39:09.758Z,100009.25
2023-09-04T19:41:39.572Z,100006.94
2023-09-04T19:44:14.816Z,100005.97
2023-09-04T19:46:42.370Z,100013.44
2023-09-04T19:49:09.518Z,100008.97
2023-09-04T19:51:43.081Z,100010.00
2023-09-04T19:54:10.389Z,100011.56
2023-09-04T19:56:37.745Z,100016.31
2023-09-04T19:59:05.036Z,100006.91
2023-09-04T20:01:33.887Z,100007.81
2023-09-04T20:04:01.149Z,100007.84
2023-09-04T20:06:28.446Z,100015.03
2023-09-04T20:08:55.712Z,100012.47
2023-09-04T20:11:23.471Z,100022.38
2023-09-04T20:13:51.670Z,100014.88
2023-09-04T20:16:19.000Z,100019.81
2023-09-04T20:18:46.277Z,100018.78
2023-09-04T20:21:14.672Z,100017.06
2023-09-04T20:23:42.277Z,100010.63
2023-09-04T20:26:09.673Z,100005.81
2023-09-04T20:28:38.147Z,100010.41
2023-09-04T20:31:06.241Z,100013.91
2023-09-04T20:33:33.519Z,100012.38
2023-09-04T20:36:00.747Z,100007.22
2023-09-04T20:38:28.021Z,100004.03
2023-09-04T20:40:55.360Z,100007.44
2023-09-04T20:43:22.683Z,99992.53
2023-09-04T20:45:50.025Z,99996.59
2023-09-04T20:48:17.096Z,99998.50
2023-09-04T20:50:44.526Z,100000.06
2023-09-04T20:53:14.006Z,100004.03
2023-09-04T20:55:42.015Z,100013.66
2023-09-04T20:58:09.004Z,100007.22
2023-09-04T21:00:35.722Z,100015.66
2023-09-04T21:03:02.706Z,100020.28
2023-09-04T21:05:29.215Z,100019.13
2023-09-04T21:07:55.741Z,100021.81
2023-09-04T21:10:22.237Z,100016.13
2023-09-04T21:12:48.625Z,100012.84
2023-09-04T21:15:14.995Z,100012.66
2023-09-04T21:17:41.422Z,100017.41
2023-09-04T21:20:07.880Z,100019.34
2023-09-04T21:22:35.499Z,100016.19
2023-09-04T21:25:02.084Z,100021.03
2023-09-04T21:27:28.450Z,100021.97
2023-09-04T21:29:55.245Z,100024.34
2023-09-04T21:32:21.637Z,100014.59
2023-09-04T21:34:48.038Z,100011.16
2023-09-04T21:37:15.552Z,100013.22
2023-09-04T21:39:42.318Z,100021.13
2023-09-04T21:42:08.701Z,100020.44
2023-09-04T21:44:35.138Z,100009.25
2023-09-04T21:47:02.043Z,100015.34
2023-09-04T21:49:28.695Z,100010.44
2023-09-04T21:51:56.390Z,100004.66
2023-09-04T21:54:23.400Z,100006.09
2023-09-04T21:56:49.798Z,100009.56
2023-09-04T21:59:16.704Z,100007.53
2023-09-04T22:01:43.192Z,100002.94
2023-09-04T22:04:09.688Z,100007.69
2023-09-04T22:06:36.088Z,100000.72
2023-09-04T22:09:02.442Z,100007.56
2023-09-04T22:11:29.221Z,100011.09
2023-09-04T22:13:55.824Z,100006.59
2023-09-04T22:16:22.317Z,99999.38
2023-09-04T22:18:49.061Z,100009.81
2023-09-04T22:21:15.874Z,100002.81
2023-09-04T22:23:44.608Z,100006.09
2023-09-04T22:26:11.126Z,100003.66
2023-09-04T22:28:37.550Z,100004.66
2023-09-04T22:31:04.161Z,100006.78
2023-09-04T22:33:30.656Z,100004.88
2023-09-04T22:35:57.050Z,100004.03
2023-09-04T22:38:25.618Z,100001.22
2023-09-04T22:40:51.972Z,100006.81
2023-09-04T22:43:18.383Z,99997.31
2023-09-04T22:45:44.967Z,99992.72
2023-09-04T22:48:11.465Z,99985.81
2023-09-04T22:50:37.889Z,99992.59
2023-09-04T22:53:06.990Z,99984.91
2023-09-04T22:55:33.996Z,99987.03
2023-09-04T22:58:00.452Z,99985.41
2023-09-04T23:00:26.875Z,99980.16
2023-09-04T23:02:53.375Z,99980.78
2023-09-04T23:05:19.766Z,99977.34
2023-09-04T23:07:46.377Z,99975.41
2023-09-04T23:10:13.285Z,99972.03
2023-09-04T23:12:39.680Z,99972.28
2023-09-04T23:15:08.306Z,99969.47
2023-09-04T23:17:34.877Z,99972.81
2023-09-04T23:20:01.224Z,99968.66
2023-09-04T23:22:27.556Z,99967.66
2023-09-04T23:24:54.008Z,99968.66
2023-09-04T23:27:20.401Z,99965.69
2023-09-04T23:29:47.274Z,99960.63
2023-09-04T23:32:13.722Z,99959.88
2023-09-04T23:34:40.097Z,99954.03
2023-09-04T23:37:06.795Z,99954.53
2023-09-04T23:39:33.312Z,99954.28
2023-09-04T23:41:59.760Z,99945.28
2023-09-04T23:44:28.521Z,99950.78
2023-09-04T23:46:54.891Z,99943.00
2023-09-04T23:49:21.316Z,99940.09
2023-09-04T23:51:47.710Z,99937.16
2023-09-04T23:54:14.076Z,99940.34
2023-09-04T23:56:40.527Z,99947.00
2023-09-04T23:59:07.262Z,99946.41
